createdAt,value
2019-03-20T00:01:05.098Z,1.50
2019-03-20T00:03:33.919Z,1.50
2019-03-20T00:06:02.778Z,1.50
2019-03-20T00:08:32.437Z,1.40
2019-03-20T00:11:01.661Z,1.40
2019-03-20T00:13:30.727Z,1.40
2019-03-20T00:16:00.027Z,1.40
2019-03-20T00:18:28.835Z,1.40
2019-03-20T00:20:57.640Z,1.30
2019-03-20T00:23:26.786Z,1.30
2019-03-20T00:25:56.118Z,1.40
2019-03-20T00:28:26.320Z,1.40
2019-03-20T00:30:55.170Z,1.40
2019-03-20T00:33:23.951Z,1.40
2019-03-20T00:35:52.818Z,1.30
2019-03-20T00:38:21.772Z,1.30
2019-03-20T00:40:50.919Z,1.30
2019-03-20T00:43:19.894Z,1.30
2019-03-20T00:45:48.876Z,1.30
2019-03-20T00:48:18.425Z,1.30
2019-03-20T00:50:47.506Z,1.20
2019-03-20T00:53:16.322Z,1.20
2019-03-20T00:55:45.270Z,1.20
2019-03-20T00:58:15.391Z,1.10
2019-03-20T01:00:44.219Z,1.10
2019-03-20T01:03:13.084Z,1.10
2019-03-20T01:05:42.254Z,1.10
2019-03-20T01:08:11.367Z,1.10
2019-03-20T01:10:40.342Z,1.10
2019-03-20T01:13:09.219Z,1.00
2019-03-20T01:15:38.159Z,1.00
2019-03-20T01:18:07.642Z,1.00
2019-03-20T01:20:36.496Z,1.00
2019-03-20T01:23:05.447Z,1.00
2019-03-20T01:25:35.275Z,1.00
2019-03-20T01:28:04.623Z,1.00
2019-03-20T01:30:34.734Z,0.90
2019-03-20T01:33:08.428Z,0.90
2019-03-20T01:35:37.794Z,0.90
2019-03-20T01:38:07.389Z,0.80
2019-03-20T01:40:36.407Z,0.80
2019-03-20T01:43:06.699Z,0.80
2019-03-20T01:45:35.961Z,0.80
2019-03-20T01:48:05.343Z,0.80
2019-03-20T01:50:34.393Z,0.80
2019-03-20T01:53:03.378Z,0.80
2019-03-20T01:55:32.371Z,0.80
2019-03-20T01:58:01.481Z,0.80
2019-03-20T02:00:30.494Z,0.70
2019-03-20T02:02:59.390Z,0.70
2019-03-20T02:05:35.757Z,0.70
2019-03-20T02:07:59.238Z,0.70
2019-03-20T02:10:28.189Z,0.70
2019-03-20T02:12:58.665Z,0.70
2019-03-20T02:15:37.920Z,0.70
2019-03-20T02:17:58.655Z,0.60
2019-03-20T02:20:27.455Z,0.60
2019-03-20T02:22:56.323Z,0.60
2019-03-20T02:25:25.134Z,0.60
2019-03-20T02:27:53.907Z,0.60
2019-03-20T02:30:22.982Z,0.60
2019-03-20T02:32:51.785Z,0.50
2019-03-20T02:35:21.013Z,0.50
2019-03-20T02:37:49.867Z,0.50
2019-03-20T02:40:18.982Z,0.50
2019-03-20T02:42:48.300Z,0.50
2019-03-20T02:45:21.241Z,0.50
2019-03-20T02:47:51.150Z,0.50
2019-03-20T02:50:20.270Z,0.50
2019-03-20T02:52:49.639Z,0.40
2019-03-20T02:55:20.789Z,0.40
2019-03-20T02:57:50.181Z,0.40
2019-03-20T03:00:19.207Z,0.30
2019-03-20T03:02:48.371Z,0.30
2019-03-20T03:05:17.850Z,0.30
2019-03-20T03:07:46.872Z,0.30
2019-03-20T03:10:15.722Z,0.40
2019-03-20T03:12:44.843Z,0.40
2019-03-20T03:15:14.256Z,0.40
2019-03-20T03:17:43.367Z,0.40
2019-03-20T03:20:12.374Z,0.40
2019-03-20T03:22:43.608Z,0.40
2019-03-20T03:25:12.675Z,0.40
2019-03-20T03:27:41.913Z,0.40
2019-03-20T03:30:11.080Z,0.30
2019-03-20T03:32:40.208Z,0.30
2019-03-20T03:35:15.579Z,0.30
2019-03-20T03:37:40.095Z,0.20
2019-03-20T03:40:09.631Z,0.20
2019-03-20T03:42:38.656Z,0.20
2019-03-20T03:45:09.541Z,0.20
2019-03-20T03:47:47.522Z,0.10
2019-03-20T03:50:16.933Z,0.10
2019-03-20T03:52:45.937Z,0.10
2019-03-20T03:55:15.015Z,0.00
2019-03-20T03:57:53.519Z,0.00
2019-03-20T04:00:22.976Z,0.00
2019-03-20T04:02:52.262Z,0.00
2019-03-20T04:05:21.656Z,0.00
2019-03-20T04:07:50.441Z,0.00
2019-03-20T04:10:20.187Z,0.00
2019-03-20T04:12:49.388Z,0.00
2019-03-20T04:15:18.355Z,0.00
2019-03-20T04:17:47.354Z,0.00
2019-03-20T04:20:16.608Z,-0.10
2019-03-20T04:22:45.460Z,-0.10
2019-03-20T04:25:14.401Z,-0.10
2019-03-20T04:27:43.412Z,-0.10
2019-03-20T04:30:12.673Z,-0.10
2019-03-20T04:32:41.901Z,-0.10
2019-03-20T04:35:11.734Z,-0.10
2019-03-20T04:37:40.604Z,-0.10
2019-03-20T04:40:09.876Z,-0.10
2019-03-20T04:42:39.065Z,-0.10
2019-03-20T04:45:12.720Z,-0.10
2019-03-20T04:47:42.168Z,0.00
2019-03-20T04:50:11.589Z,0.00
2019-03-20T04:52:40.648Z,0.00
2019-03-20T04:55:10.771Z,0.00
2019-03-20T04:57:40.095Z,0.00
2019-03-20T05:00:11.748Z,0.00
2019-03-20T05:02:41.451Z,-0.10
2019-03-20T05:05:10.677Z,-0.10
2019-03-20T05:07:40.491Z,-0.10
2019-03-20T05:10:11.548Z,-0.10
2019-03-20T05:12:40.760Z,-0.10
2019-03-20T05:15:10.291Z,-0.10
2019-03-20T05:17:39.406Z,-0.20
2019-03-20T05:20:09.747Z,-0.20
2019-03-20T05:22:38.827Z,-0.20
2019-03-20T05:25:08.445Z,-0.20
2019-03-20T05:27:38.038Z,-0.20
2019-03-20T05:30:07.385Z,-0.20
2019-03-20T05:32:36.561Z,-0.20
2019-03-20T05:35:06.499Z,-0.20
2019-03-20T05:37:35.307Z,-0.20
2019-03-20T05:40:04.554Z,-0.10
2019-03-20T05:42:33.595Z,-0.10
2019-03-20T05:45:08.634Z,-0.20
2019-03-20T05:47:37.672Z,-0.20
2019-03-20T05:50:06.918Z,-0.20
2019-03-20T05:52:35.714Z,-0.20
2019-03-20T05:55:04.708Z,-0.20
2019-03-20T05:57:33.487Z,-0.10
2019-03-20T06:00:02.358Z,-0.10
2019-03-20T06:02:31.163Z,-0.10
2019-03-20T06:05:00.337Z,-0.10
2019-03-20T06:07:29.207Z,-0.10
2019-03-20T06:09:58.029Z,0.00
2019-03-20T06:12:30.138Z,0.00
2019-03-20T06:14:59.418Z,0.00
2019-03-20T06:17:28.318Z,0.10
2019-03-20T06:19:57.851Z,0.10
2019-03-20T06:22:27.349Z,0.20
2019-03-20T06:24:56.416Z,0.20
2019-03-20T06:27:25.839Z,0.30
2019-03-20T06:29:55.142Z,0.40
2019-03-20T06:32:24.233Z,0.40
2019-03-20T06:34:53.011Z,0.50
2019-03-20T06:37:31.914Z,0.60
2019-03-20T06:39:53.557Z,0.60
2019-03-20T06:42:23.222Z,0.70
2019-03-20T06:45:00.545Z,0.80
2019-03-20T06:47:30.357Z,0.80
2019-03-20T06:49:59.167Z,0.90
2019-03-20T06:52:28.222Z,0.90
2019-03-20T06:54:57.538Z,1.00
2019-03-20T06:57:33.125Z,1.00
2019-03-20T07:00:52.538Z,1.10
2019-03-20T07:04:02.946Z,1.10
2019-03-20T07:07:11.835Z,1.20
2019-03-20T07:09:48.257Z,1.30
2019-03-20T07:12:35.384Z,1.40
2019-03-20T07:15:04.408Z,1.50
2019-03-20T07:17:33.245Z,1.60
2019-03-20T07:20:02.279Z,1.60
2019-03-20T07:22:31.111Z,1.70
2019-03-20T07:24:59.941Z,1.80
2019-03-20T07:27:28.801Z,1.90
2019-03-20T07:29:57.920Z,2.10
2019-03-20T07:32:30.012Z,2.20
2019-03-20T07:34:59.097Z,2.30
2019-03-20T07:37:27.996Z,2.40
2019-03-20T07:39:57.084Z,2.50
2019-03-20T07:42:26.464Z,2.60
2019-03-20T07:44:55.484Z,2.70
2019-03-20T07:47:24.684Z,2.80
2019-03-20T07:49:53.846Z,2.90
2019-03-20T07:52:22.850Z,3.00
2019-03-20T07:54:54.748Z,3.10
2019-03-20T07:57:23.430Z,3.20
2019-03-20T07:59:52.485Z,3.30
2019-03-20T08:02:21.525Z,3.40
2019-03-20T08:05:08.947Z,3.50
2019-03-20T08:07:37.974Z,3.50
2019-03-20T08:10:09.467Z,3.60
2019-03-20T08:12:38.257Z,3.70
2019-03-20T08:15:09.882Z,3.80
2019-03-20T08:17:38.737Z,3.90
2019-03-20T08:20:09.256Z,4.00
2019-03-20T08:22:38.607Z,4.10
2019-03-20T08:25:07.677Z,4.20
2019-03-20T08:27:37.155Z,4.30
2019-03-20T08:30:06.189Z,4.40
2019-03-20T08:32:35.011Z,4.50
2019-03-20T08:35:04.497Z,4.50
2019-03-20T08:37:33.375Z,4.60
2019-03-20T08:40:02.176Z,4.70
2019-03-20T08:42:31.003Z,4.80
2019-03-20T08:44:59.790Z,4.90
2019-03-20T08:47:29.196Z,5.00
2019-03-20T08:49:58.011Z,5.10
2019-03-20T08:52:27.139Z,5.20
2019-03-20T08:54:56.125Z,5.30
2019-03-20T08:57:24.893Z,5.40
2019-03-20T08:59:53.960Z,5.50
2019-03-20T09:02:22.798Z,5.60
2019-03-20T09:04:51.635Z,5.70
2019-03-20T09:07:26.914Z,5.70
2019-03-20T09:09:56.474Z,5.90
2019-03-20T09:12:25.585Z,6.00
2019-03-20T09:14:54.715Z,6.10
2019-03-20T09:17:23.671Z,6.10
2019-03-20T09:19:52.717Z,6.30
2019-03-20T09:22:22.023Z,6.30
2019-03-20T09:24:51.055Z,6.40
2019-03-20T09:29:54.207Z,6.60
2019-03-20T09:32:23.277Z,6.60
2019-03-20T09:34:52.499Z,6.70
2019-03-20T09:37:21.592Z,6.80
2019-03-20T09:39:50.615Z,6.80
2019-03-20T09:42:19.860Z,6.90
2019-03-20T09:44:49.547Z,7.10
2019-03-20T09:47:19.749Z,7.30
2019-03-20T09:49:51.225Z,7.40
2019-03-20T09:52:20.962Z,7.40
2019-03-20T09:54:50.401Z,7.50
2019-03-20T09:57:19.622Z,7.60
2019-03-20T09:59:49.130Z,7.70
2019-03-20T10:02:21.358Z,7.80
2019-03-20T10:05:09.877Z,7.90
2019-03-20T10:07:38.985Z,8.00
2019-03-20T10:10:09.426Z,8.10
2019-03-20T10:12:41.313Z,8.20
2019-03-20T10:15:11.320Z,8.40
2019-03-20T10:17:47.489Z,8.50
2019-03-20T10:20:18.282Z,8.60
2019-03-20T10:22:47.263Z,8.70
2019-03-20T10:25:16.579Z,8.90
2019-03-20T10:27:46.799Z,9.00
2019-03-20T10:30:23.318Z,9.10
2019-03-20T10:32:54.856Z,9.30
2019-03-20T10:35:24.525Z,9.40
2019-03-20T10:37:54.812Z,9.50
2019-03-20T10:40:25.152Z,9.70
2019-03-20T10:42:54.069Z,9.70
2019-03-20T10:45:23.476Z,9.80
2019-03-20T10:47:53.248Z,9.90
2019-03-20T10:50:22.970Z,10.00
2019-03-20T10:52:52.326Z,10.10
2019-03-20T10:55:21.382Z,10.10
2019-03-20T10:57:50.345Z,10.20
2019-03-20T11:00:20.259Z,10.20
2019-03-20T11:02:49.319Z,10.30
2019-03-20T11:05:19.390Z,10.40
2019-03-20T11:07:48.387Z,10.40
2019-03-20T11:10:19.591Z,10.50
2019-03-20T11:12:48.770Z,10.60
2019-03-20T11:15:18.008Z,10.70
2019-03-20T11:17:47.511Z,10.80
2019-03-20T11:20:17.140Z,10.90
2019-03-20T11:22:46.341Z,11.00
2019-03-20T11:25:16.722Z,11.10
2019-03-20T11:27:51.519Z,11.20
2019-03-20T11:30:22.177Z,11.20
2019-03-20T11:32:52.675Z,11.20
2019-03-20T11:35:22.175Z,11.30
2019-03-20T11:37:51.521Z,11.40
2019-03-20T11:40:23.628Z,11.40
2019-03-20T11:42:52.739Z,11.50
2019-03-20T11:45:23.541Z,11.50
2019-03-20T11:47:52.579Z,11.60
2019-03-20T11:50:35.926Z,11.70
2019-03-20T11:53:05.903Z,11.70
2019-03-20T11:55:34.793Z,11.80
2019-03-20T11:58:03.875Z,11.90
2019-03-20T12:00:37.033Z,11.90
2019-03-20T12:03:06.060Z,12.00
2019-03-20T12:05:35.191Z,12.00
2019-03-20T12:08:05.093Z,12.00
2019-03-20T12:10:34.068Z,12.10
2019-03-20T12:13:03.379Z,12.10
2019-03-20T12:15:32.588Z,12.20
2019-03-20T12:18:01.837Z,12.20
2019-03-20T12:20:30.743Z,12.20
2019-03-20T12:23:02.372Z,12.30
2019-03-20T12:25:32.453Z,12.40
2019-03-20T12:28:03.280Z,12.50
2019-03-20T12:30:32.319Z,12.60
2019-03-20T12:33:01.220Z,12.60
2019-03-20T12:35:31.823Z,12.60
2019-03-20T12:38:01.090Z,12.70
2019-03-20T12:40:31.117Z,12.70
2019-03-20T12:43:00.488Z,12.70
2019-03-20T12:45:31.177Z,12.70
2019-03-20T12:48:00.267Z,12.70
2019-03-20T12:50:29.446Z,12.80
2019-03-20T12:53:01.727Z,12.80
2019-03-20T12:55:31.425Z,12.90
2019-03-20T12:58:00.327Z,12.90
2019-03-20T13:00:29.554Z,13.00
2019-03-20T13:02:58.944Z,13.00
2019-03-20T13:05:28.370Z,13.00
2019-03-20T13:08:05.317Z,13.00
2019-03-20T13:10:28.121Z,12.90
2019-03-20T13:13:07.522Z,12.90
2019-03-20T13:15:36.358Z,12.90
2019-03-20T13:18:05.251Z,12.90
2019-03-20T13:20:35.396Z,12.90
2019-03-20T13:23:07.433Z,12.90
2019-03-20T13:25:39.864Z,12.90
2019-03-20T13:28:08.711Z,12.90
2019-03-20T13:30:48.981Z,12.90
2019-03-20T13:33:25.709Z,13.00
2019-03-20T13:35:48.697Z,13.00
2019-03-20T13:38:18.198Z,13.10
2019-03-20T13:40:47.992Z,13.20
2019-03-20T13:43:17.251Z,13.20
2019-03-20T13:45:48.863Z,13.20
2019-03-20T13:48:18.062Z,13.20
2019-03-20T13:50:47.461Z,13.20
2019-03-20T13:53:16.929Z,13.10
2019-03-20T13:55:49.894Z,13.20
2019-03-20T13:58:19.003Z,13.20
2019-03-20T14:00:47.928Z,13.20
2019-03-20T14:03:17.368Z,13.20
2019-03-20T14:05:46.221Z,13.20
2019-03-20T14:08:15.420Z,13.20
2019-03-20T14:10:50.476Z,13.20
2019-03-20T14:13:17.196Z,13.30
2019-03-20T14:15:47.174Z,13.30
2019-03-20T14:18:16.527Z,13.40
2019-03-20T14:20:45.644Z,13.40
2019-03-20T14:23:15.590Z,13.30
2019-03-20T14:25:54.760Z,13.40
2019-03-20T14:28:23.831Z,13.40
2019-03-20T14:31:01.153Z,13.40
2019-03-20T14:36:05.019Z,13.30
2019-03-20T14:38:36.201Z,13.30
2019-03-20T14:41:05.379Z,13.30
2019-03-20T14:43:34.681Z,13.30
2019-03-20T14:46:03.574Z,13.30
2019-03-20T14:48:33.537Z,13.30
2019-03-20T14:51:03.004Z,13.30
2019-03-20T14:53:38.789Z,13.20
2019-03-20T14:56:07.762Z,13.20
2019-03-20T14:58:37.157Z,13.20
2019-03-20T15:01:14.004Z,13.20
2019-03-20T15:03:42.872Z,13.20
2019-03-20T15:06:26.084Z,13.10
2019-03-20T15:08:55.094Z,13.10
2019-03-20T15:11:23.961Z,13.00
2019-03-20T15:13:52.728Z,13.00
2019-03-20T15:16:21.540Z,13.00
2019-03-20T15:18:50.814Z,13.10
2019-03-20T15:21:19.869Z,13.10
2019-03-20T15:23:48.868Z,13.10
2019-03-20T15:26:18.024Z,13.10
2019-03-20T15:28:47.628Z,13.10
2019-03-20T15:31:16.751Z,13.10
2019-03-20T15:33:45.858Z,13.10
2019-03-20T15:36:14.973Z,13.10
2019-03-20T15:38:43.747Z,13.10
2019-03-20T15:41:13.966Z,13.10
2019-03-20T15:43:44.970Z,13.10
2019-03-20T15:46:14.018Z,13.10
2019-03-20T15:48:43.411Z,13.10
2019-03-20T15:51:13.077Z,13.10
2019-03-20T15:53:42.080Z,13.10
2019-03-20T15:56:10.974Z,13.10
2019-03-20T15:58:39.755Z,13.20
2019-03-20T16:01:08.638Z,13.20
2019-03-20T16:03:38.101Z,13.20
2019-03-20T16:06:07.333Z,13.20
2019-03-20T16:08:36.158Z,13.30
2019-03-20T16:11:06.913Z,13.30
2019-03-20T16:13:36.217Z,13.30
2019-03-20T16:16:05.440Z,13.20
2019-03-20T16:18:34.776Z,13.30
2019-03-20T16:21:03.650Z,13.20
2019-03-20T16:23:32.882Z,13.20
2019-03-20T16:26:15.201Z,13.20
2019-03-20T16:28:48.628Z,13.10
2019-03-20T16:31:21.944Z,13.00
2019-03-20T16:33:51.104Z,12.90
2019-03-20T16:36:20.521Z,12.80
2019-03-20T16:38:56.663Z,12.80
2019-03-20T16:41:27.182Z,12.70
2019-03-20T16:43:56.654Z,12.60
2019-03-20T16:46:25.861Z,12.60
2019-03-20T16:48:58.925Z,12.50
2019-03-20T16:51:27.952Z,12.40
2019-03-20T16:53:57.055Z,12.40
2019-03-20T16:56:28.062Z,12.30
2019-03-20T16:58:57.491Z,12.30
2019-03-20T17:01:26.432Z,12.20
2019-03-20T17:03:55.269Z,12.10
2019-03-20T17:06:24.672Z,12.00
2019-03-20T17:09:00.620Z,11.90
2019-03-20T17:11:38.089Z,11.80
2019-03-20T17:14:00.285Z,11.70
2019-03-20T17:16:29.420Z,11.60
2019-03-20T17:18:58.208Z,11.50
2019-03-20T17:21:39.424Z,11.40
2019-03-20T17:24:08.282Z,11.40
2019-03-20T17:26:37.634Z,11.30
2019-03-20T17:29:09.089Z,11.20
2019-03-20T17:31:37.759Z,11.10
2019-03-20T17:34:06.534Z,11.00
2019-03-20T17:36:35.332Z,10.90
2019-03-20T17:39:07.304Z,10.80
2019-03-20T17:41:36.918Z,10.80
2019-03-20T17:44:06.193Z,10.60
2019-03-20T17:46:36.157Z,10.40
2019-03-20T17:49:05.265Z,10.30
2019-03-20T17:51:34.183Z,10.20
2019-03-20T17:54:03.095Z,10.10
2019-03-20T17:56:45.313Z,10.10
2019-03-20T17:59:14.071Z,10.10
2019-03-20T18:01:43.309Z,10.00
2019-03-20T18:04:12.103Z,9.90
2019-03-20T18:06:41.220Z,9.80
2019-03-20T18:09:10.455Z,9.80
2019-03-20T18:11:49.555Z,9.70
2019-03-20T18:14:18.707Z,9.60
2019-03-20T18:16:48.150Z,9.50
2019-03-20T18:19:19.277Z,9.50
2019-03-20T18:21:48.183Z,9.40
2019-03-20T18:24:17.260Z,9.40
2019-03-20T18:26:46.105Z,9.30
2019-03-20T18:29:15.179Z,9.30
2019-03-20T18:31:46.197Z,9.20
2019-03-20T18:34:15.550Z,9.10
2019-03-20T18:36:44.368Z,9.10
2019-03-20T18:39:13.129Z,9.00
2019-03-20T18:41:41.944Z,9.00
2019-03-20T18:44:10.809Z,8.90
2019-03-20T18:46:39.888Z,8.90
2019-03-20T18:49:09.119Z,8.80
2019-03-20T18:51:38.166Z,8.80
2019-03-20T18:54:07.244Z,8.70
2019-03-20T18:56:37.626Z,8.60
2019-03-20T18:59:06.484Z,8.60
2019-03-20T19:01:35.660Z,8.50
2019-03-20T19:04:05.698Z,8.40
2019-03-20T19:06:34.926Z,8.40
2019-03-20T19:09:05.759Z,8.30
2019-03-20T19:11:34.889Z,8.30
2019-03-20T19:14:03.883Z,8.20
2019-03-20T19:16:32.818Z,8.20
2019-03-20T19:19:02.051Z,8.10
2019-03-20T19:21:31.119Z,8.10
2019-03-20T19:24:00.277Z,8.10
2019-03-20T19:26:30.949Z,8.00
2019-03-20T19:28:59.970Z,8.00
2019-03-20T19:31:28.990Z,7.90
2019-03-20T19:33:58.370Z,7.90
2019-03-20T19:36:28.276Z,7.90
2019-03-20T19:38:59.502Z,7.80
2019-03-20T19:41:29.922Z,7.80
2019-03-20T19:43:58.787Z,7.80
2019-03-20T19:46:27.583Z,7.70
2019-03-20T19:48:58.622Z,7.70
2019-03-20T19:51:27.437Z,7.70
2019-03-20T19:53:56.487Z,7.70
2019-03-20T19:56:25.533Z,7.60
2019-03-20T19:58:55.743Z,7.60
2019-03-20T20:01:24.530Z,7.60
2019-03-20T20:03:53.440Z,7.50
2019-03-20T20:06:22.492Z,7.50
2019-03-20T20:08:51.435Z,7.50
2019-03-20T20:11:26.362Z,7.40
2019-03-20T20:13:55.408Z,7.40
2019-03-20T20:16:24.466Z,7.30
2019-03-20T20:18:53.329Z,7.30
2019-03-20T20:21:22.177Z,7.20
2019-03-20T20:23:51.230Z,7.20
2019-03-20T20:26:20.003Z,7.10
2019-03-20T20:28:49.083Z,7.10
2019-03-20T20:31:17.867Z,7.00
2019-03-20T20:33:47.797Z,7.00
2019-03-20T20:36:16.887Z,6.90
2019-03-20T20:38:45.997Z,6.90
2019-03-20T20:41:15.095Z,6.80
2019-03-20T20:43:50.023Z,6.80
2019-03-20T20:46:19.681Z,6.70
2019-03-20T20:48:48.890Z,6.70
2019-03-20T20:51:28.232Z,6.70
2019-03-20T20:53:57.579Z,6.60
2019-03-20T20:56:26.872Z,6.60
2019-03-20T20:58:56.715Z,6.50
2019-03-20T21:01:25.722Z,6.50
2019-03-20T21:03:55.056Z,6.40
2019-03-20T21:06:24.348Z,6.40
2019-03-20T21:08:54.261Z,6.30
2019-03-20T21:11:23.278Z,6.30
2019-03-20T21:13:52.093Z,6.30
2019-03-20T21:16:21.393Z,6.20
2019-03-20T21:19:38.117Z,6.20
2019-03-20T21:22:42.328Z,6.20
2019-03-20T21:25:12.357Z,6.10
2019-03-20T21:30:58.639Z,6.00
2019-03-20T21:33:54.738Z,6.00
2019-03-20T21:37:00.780Z,5.90
2019-03-20T21:39:30.720Z,5.90
2019-03-20T21:42:41.033Z,5.90
2019-03-20T21:45:34.054Z,5.80
2019-03-20T21:48:16.756Z,5.80
2019-03-20T21:51:15.048Z,5.80
2019-03-20T21:54:22.839Z,5.70
2019-03-20T21:57:26.651Z,5.70
2019-03-20T22:00:32.677Z,5.70
2019-03-20T22:03:02.277Z,5.60
2019-03-20T22:06:22.069Z,5.60
2019-03-20T22:08:52.071Z,5.60
2019-03-20T22:12:15.878Z,5.50
2019-03-20T22:14:48.735Z,5.50
2019-03-20T22:18:00.909Z,5.40
2019-03-20T22:20:42.898Z,5.30
2019-03-20T22:23:34.227Z,5.30
2019-03-20T22:26:39.349Z,5.30
2019-03-20T22:29:20.668Z,5.20
2019-03-20T22:32:31.102Z,5.20
2019-03-20T22:35:20.507Z,5.20
2019-03-20T22:38:00.798Z,5.10
2019-03-20T22:41:13.171Z,5.10
2019-03-20T22:44:05.622Z,5.10
2019-03-20T22:47:13.988Z,5.10
2019-03-20T22:50:02.901Z,5.00
2019-03-20T22:53:27.214Z,5.00
2019-03-20T22:56:48.508Z,5.00
2019-03-20T22:59:17.838Z,4.90
2019-03-20T23:02:09.539Z,4.90
2019-03-20T23:04:45.458Z,4.80
2019-03-20T23:07:14.904Z,4.80
2019-03-20T23:09:44.495Z,4.70
2019-03-20T23:12:17.809Z,4.70
2019-03-20T23:14:46.573Z,4.70
2019-03-20T23:17:20.596Z,4.60
2019-03-20T23:19:51.153Z,4.60
2019-03-20T23:22:21.569Z,4.60
2019-03-20T23:24:51.629Z,4.60
2019-03-20T23:27:27.592Z,4.60
2019-03-20T23:29:56.942Z,4.50
2019-03-20T23:32:26.500Z,4.50
2019-03-20T23:34:56.091Z,4.50
2019-03-20T23:37:25.686Z,4.40
2019-03-20T23:39:55.039Z,4.40
2019-03-20T23:42:25.402Z,4.40
2019-03-20T23:44:54.877Z,4.40
2019-03-20T23:47:56.327Z,4.40
2019-03-20T23:50:26.581Z,4.40
2019-03-20T23:52:56.072Z,4.40
2019-03-20T23:55:37.305Z,4.30
2019-03-20T23:58:07.884Z,4.30
